sensor_id;sensor_type;location;lat;lon;timestamp;pressure;altitude;pressure_sealevel;temperature;humidity
63652;BME280;49801;37.536;-122.304;2022-12-20T00:00:11;102452.97;;;8.50;68.36
63652;BME280;49801;37.536;-122.304;2022-12-20T00:00:41;102448.75;;;8.45;68.19
63652;BME280;49801;37.536;-122.304;2022-12-20T00:01:10;102452.47;;;8.44;68.67
63652;BME280;49801;37.536;-122.304;2022-12-20T00:01:36;102451.19;;;8.37;68.98
63652;BME280;49801;37.536;-122.304;2022-12-20T00:02:02;102451.91;;;8.39;69.05
63652;BME280;49801;37.536;-122.304;2022-12-20T00:02:27;102450.28;;;8.37;69.59
63652;BME280;49801;37.536;-122.304;2022-12-20T00:02:53;102452.88;;;8.38;69.35
63652;BME280;49801;37.536;-122.304;2022-12-20T00:03:19;102449.22;;;8.39;69.56
63652;BME280;49801;37.536;-122.304;2022-12-20T00:03:45;102449.03;;;8.42;69.33
63652;BME280;49801;37.536;-122.304;2022-12-20T00:04:11;102452.47;;;8.44;69.57
63652;BME280;49801;37.536;-122.304;2022-12-20T00:04:37;102452.47;;;8.44;69.38
63652;BME280;49801;37.536;-122.304;2022-12-20T00:05:03;102443.38;;;8.45;69.75
63652;BME280;49801;37.536;-122.304;2022-12-20T00:05:28;102437.97;;;8.45;69.72
63652;BME280;49801;37.536;-122.304;2022-12-20T00:05:54;102443.63;;;8.42;69.83
63652;BME280;49801;37.536;-122.304;2022-12-20T00:06:20;102438.22;;;8.42;70.09
63652;BME280;49801;37.536;-122.304;2022-12-20T00:06:46;102444.56;;;8.41;70.03
63652;BME280;49801;37.536;-122.304;2022-12-20T00:07:12;102445.53;;;8.40;70.10
63652;BME280;49801;37.536;-122.304;2022-12-20T00:07:38;102429.59;;;8.37;70.25
63652;BME280;49801;37.536;-122.304;2022-12-20T00:08:04;102439.72;;;8.34;70.29
63652;BME280;49801;37.536;-122.304;2022-12-20T00:08:29;102431.50;;;8.35;70.42
63652;BME280;49801;37.536;-122.304;2022-12-20T00:08:56;102431.50;;;8.35;70.63
63652;BME280;49801;37.536;-122.304;2022-12-20T00:09:22;102432.28;;;8.37;70.39
63652;BME280;49801;37.536;-122.304;2022-12-20T00:09:49;102427.84;;;8.36;70.85
63652;BME280;49801;37.536;-122.304;2022-12-20T00:10:15;102433.25;;;8.36;70.83
63652;BME280;49801;37.536;-122.304;2022-12-20T00:10:41;102438.88;;;8.33;70.83
63652;BME280;49801;37.536;-122.304;2022-12-20T00:11:08;102432.13;;;8.39;70.54
63652;BME280;49801;37.536;-122.304;2022-12-20T00:11:34;102434.84;;;8.39;70.71
63652;BME280;49801;37.536;-122.304;2022-12-20T00:12:00;102431.78;;;8.32;71.07
63652;BME280;49801;37.536;-122.304;2022-12-20T00:12:26;102436.53;;;8.29;70.95
63652;BME280;49801;37.536;-122.304;2022-12-20T00:12:51;102433.69;;;8.30;70.93
63652;BME280;49801;37.536;-122.304;2022-12-20T00:13:17;102435.44;;;8.31;71.05
63652;BME280;49801;37.536;-122.304;2022-12-20T00:13:44;102432.84;;;8.30;71.02
63652;BME280;49801;37.536;-122.304;2022-12-20T00:14:10;102439.09;;;8.30;71.21
63652;BME280;49801;37.536;-122.304;2022-12-20T00:14:36;102431.16;;;8.29;71.12
63652;BME280;49801;37.536;-122.304;2022-12-20T00:15:02;102426.59;;;8.29;71.06
63652;BME280;49801;37.536;-122.304;2022-12-20T00:15:29;102430.03;;;8.31;71.25
63652;BME280;49801;37.536;-122.304;2022-12-20T00:16:11;102437.16;;;8.32;70.75
63652;BME280;49801;37.536;-122.304;2022-12-20T00:16:37;102424.41;;;8.34;71.30
63652;BME280;49801;37.536;-122.304;2022-12-20T00:17:03;102436.91;;;8.35;70.81
63652;BME280;49801;37.536;-122.304;2022-12-20T00:17:29;102427.84;;;8.36;70.60
63652;BME280;49801;37.536;-122.304;2022-12-20T00:17:55;102429.81;;;8.34;70.47
63652;BME280;49801;37.536;-122.304;2022-12-20T00:18:20;102434.22;;;8.35;70.71
63652;BME280;49801;37.536;-122.304;2022-12-20T00:18:49;102431.41;;;8.37;70.67
63652;BME280;49801;37.536;-122.304;2022-12-20T00:19:15;102432.50;;;8.34;70.59
63652;BME280;49801;37.536;-122.304;2022-12-20T00:19:42;102436.41;;;8.30;70.69
63652;BME280;49801;37.536;-122.304;2022-12-20T00:20:08;102434.19;;;8.24;70.99
63652;BME280;49801;37.536;-122.304;2022-12-20T00:20:34;102437.63;;;8.26;71.05
63652;BME280;49801;37.536;-122.304;2022-12-20T00:21:00;102438.25;;;8.30;70.72
63652;BME280;49801;37.536;-122.304;2022-12-20T00:21:27;102428.56;;;8.27;70.75
63652;BME280;49801;37.536;-122.304;2022-12-20T00:21:53;102444.50;;;8.30;70.83
63652;BME280;49801;37.536;-122.304;2022-12-20T00:22:18;102435.44;;;8.31;70.96
63652;BME280;49801;37.536;-122.304;2022-12-20T00:22:44;102435.22;;;8.34;70.96
63652;BME280;49801;37.536;-122.304;2022-12-20T00:23:10;102435.53;;;8.30;70.87
63652;BME280;49801;37.536;-122.304;2022-12-20T00:23:36;102436.53;;;8.29;71.17
63652;BME280;49801;37.536;-122.304;2022-12-20T00:24:03;102437.38;;;8.29;71.03
63652;BME280;49801;37.536;-122.304;2022-12-20T00:24:29;102437.38;;;8.29;70.94
63652;BME280;49801;37.536;-122.304;2022-12-20T00:24:55;102430.50;;;8.25;71.32
63652;BME280;49801;37.536;-122.304;2022-12-20T00:25:21;102432.66;;;8.20;71.11
63652;BME280;49801;37.536;-122.304;2022-12-20T00:25:47;102427.28;;;8.20;71.08
63652;BME280;49801;37.536;-122.304;2022-12-20T00:26:13;102430.97;;;8.19;71.32
63652;BME280;49801;37.536;-122.304;2022-12-20T00:26:40;102427.06;;;8.23;71.34
63652;BME280;49801;37.536;-122.304;2022-12-20T00:27:06;102429.75;;;8.23;71.49
63652;BME280;49801;37.536;-122.304;2022-12-20T00:27:32;102430.97;;;8.19;71.43
63652;BME280;49801;37.536;-122.304;2022-12-20T00:27:57;102429.22;;;8.18;71.24
63652;BME280;49801;37.536;-122.304;2022-12-20T00:28:23;102427.75;;;8.14;71.48
63652;BME280;49801;37.536;-122.304;2022-12-20T00:28:49;102431.91;;;8.06;71.66
63652;BME280;49801;37.536;-122.304;2022-12-20T00:29:15;102424.53;;;8.08;71.97
63652;BME280;49801;37.536;-122.304;2022-12-20T00:29:41;102434.34;;;8.10;71.71
63652;BME280;49801;37.536;-122.304;2022-12-20T00:30:06;102429.19;;;8.06;71.64
63652;BME280;49801;37.536;-122.304;2022-12-20T00:30:34;102431.66;;;8.10;71.75
63652;BME280;49801;37.536;-122.304;2022-12-20T00:31:00;102427.03;;;8.12;71.66
63652;BME280;49801;37.536;-122.304;2022-12-20T00:31:27;102434.84;;;8.15;71.53
63652;BME280;49801;37.536;-122.304;2022-12-20T00:31:53;102431.41;;;8.13;71.43
63652;BME280;49801;37.536;-122.304;2022-12-20T00:32:18;102426.03;;;8.13;71.76
63652;BME280;49801;37.536;-122.304;2022-12-20T00:32:44;102431.41;;;8.13;71.63
63652;BME280;49801;37.536;-122.304;2022-12-20T00:33:10;102429.94;;;8.08;71.57
63652;BME280;49801;37.536;-122.304;2022-12-20T00:33:36;102433.72;;;8.06;71.63
63652;BME280;49801;37.536;-122.304;2022-12-20T00:34:03;102434.06;;;8.01;71.78
63652;BME280;49801;37.536;-122.304;2022-12-20T00:34:29;102437.84;;;7.99;71.78
63652;BME280;49801;37.536;-122.304;2022-12-20T00:34:54;102435.78;;;8.02;71.50
63652;BME280;49801;37.536;-122.304;2022-12-20T00:35:20;102435.78;;;8.02;71.47
63652;BME280;49801;37.536;-122.304;2022-12-20T00:35:46;102435.78;;;8.02;71.73
63652;BME280;49801;37.536;-122.304;2022-12-20T00:36:12;102437.50;;;8.03;71.59
63652;BME280;49801;37.536;-122.304;2022-12-20T00:36:38;102422.19;;;8.04;71.77
63652;BME280;49801;37.536;-122.304;2022-12-20T00:37:04;102434.94;;;8.02;71.59
63652;BME280;49801;37.536;-122.304;2022-12-20T00:37:30;102436.78;;;8.01;71.75
63652;BME280;49801;37.536;-122.304;2022-12-20T00:37:55;102427.16;;;7.97;71.69
63652;BME280;49801;37.536;-122.304;2022-12-20T00:38:22;102430.88;;;7.96;72.05
63652;BME280;49801;37.536;-122.304;2022-12-20T00:38:48;102425.34;;;7.98;72.12
63652;BME280;49801;37.536;-122.304;2022-12-20T00:39:14;102429.13;;;7.95;72.34
63652;BME280;49801;37.536;-122.304;2022-12-20T00:39:40;102418.56;;;7.92;72.67
63652;BME280;49801;37.536;-122.304;2022-12-20T00:40:06;102422.00;;;7.94;72.21
63652;BME280;49801;37.536;-122.304;2022-12-20T00:40:32;102422.47;;;7.88;72.43
63652;BME280;49801;37.536;-122.304;2022-12-20T00:41:01;102428.09;;;7.85;72.63
63652;BME280;49801;37.536;-122.304;2022-12-20T00:41:28;102424.44;;;7.86;72.66
63652;BME280;49801;37.536;-122.304;2022-12-20T00:41:54;102422.25;;;7.91;72.75
63652;BME280;49801;37.536;-122.304;2022-12-20T00:42:20;102429.34;;;7.92;72.54
63652;BME280;49801;37.536;-122.304;2022-12-20T00:42:46;102427.66;;;7.91;72.67
63652;BME280;49801;37.536;-122.304;2022-12-20T00:43:11;102427.38;;;7.94;72.39
63652;BME280;49801;37.536;-122.304;2022-12-20T00:43:38;102431.31;;;7.90;72.52
63652;BME280;49801;37.536;-122.304;2022-12-20T00:44:04;102429.81;;;7.86;72.75
63652;BME280;49801;37.536;-122.304;2022-12-20T00:44:29;102438.88;;;7.85;72.74
63652;BME280;49801;37.536;-122.304;2022-12-20T00:44:55;102430.91;;;7.83;73.05
63652;BME280;49801;37.536;-122.304;2022-12-20T00:45:21;102433.69;;;7.82;72.89
63652;BME280;49801;37.536;-122.304;2022-12-20T00:45:47;102439.09;;;7.82;73.17
63652;BME280;49801;37.536;-122.304;2022-12-20T00:46:13;102433.81;;;7.80;73.11
63652;BME280;49801;37.536;-122.304;2022-12-20T00:46:39;102430.25;;;7.80;73.27
63652;BME280;49801;37.536;-122.304;2022-12-20T00:47:05;102442.16;;;7.77;73.28
63652;BME280;49801;37.536;-122.304;2022-12-20T00:47:31;102441.53;;;7.74;73.52
63652;BME280;49801;37.536;-122.304;2022-12-20T00:47:57;102445.19;;;7.73;73.46
63652;BME280;49801;37.536;-122.304;2022-12-20T00:48:23;102440.75;;;7.72;73.24
63652;BME280;49801;37.536;-122.304;2022-12-20T00:48:49;102444.44;;;7.70;73.34
63652;BME280;49801;37.536;-122.304;2022-12-20T00:49:15;102441.53;;;7.74;73.10
63652;BME280;49801;37.536;-122.304;2022-12-20T00:49:41;102445.06;;;7.74;73.44
63652;BME280;49801;37.536;-122.304;2022-12-20T00:50:07;102448.84;;;7.72;73.37
63652;BME280;49801;37.536;-122.304;2022-12-20T00:50:32;102452.31;;;7.74;73.45
63652;BME280;49801;37.536;-122.304;2022-12-20T00:51:08;102446.03;;;7.73;73.39
63652;BME280;49801;37.536;-122.304;2022-12-20T00:51:34;102450.56;;;7.73;73.46
63652;BME280;49801;37.536;-122.304;2022-12-20T00:52:00;102455.97;;;7.73;73.50
63652;BME280;49801;37.536;-122.304;2022-12-20T00:52:26;102458.03;;;7.69;73.44
63652;BME280;49801;37.536;-122.304;2022-12-20T00:52:52;102456.19;;;7.69;73.61
63652;BME280;49801;37.536;-122.304;2022-12-20T00:53:17;102463.31;;;7.70;73.76
63652;BME280;49801;37.536;-122.304;2022-12-20T00:53:43;102458.34;;;7.64;74.30
63652;BME280;49801;37.536;-122.304;2022-12-20T00:54:09;102466.34;;;7.66;74.38
63652;BME280;49801;37.536;-122.304;2022-12-20T00:54:35;102461.56;;;7.69;74.06
63652;BME280;49801;37.536;-122.304;2022-12-20T00:55:01;102462.31;;;7.72;74.08
63652;BME280;49801;37.536;-122.304;2022-12-20T00:55:26;102463.31;;;7.70;73.80
63652;BME280;49801;37.536;-122.304;2022-12-20T00:55:52;102466.00;;;7.70;74.10
63652;BME280;49801;37.536;-122.304;2022-12-20T00:56:18;102461.34;;;7.73;73.92
63652;BME280;49801;37.536;-122.304;2022-12-20T00:56:44;102463.84;;;7.76;73.87
63652;BME280;49801;37.536;-122.304;2022-12-20T00:57:10;102458.44;;;7.76;73.77
63652;BME280;49801;37.536;-122.304;2022-12-20T00:57:36;102453.16;;;7.74;73.66
63652;BME280;49801;37.536;-122.304;2022-12-20T00:58:01;102461.56;;;7.69;73.68
63652;BME280;49801;37.536;-122.304;2022-12-20T00:58:27;102457.91;;;7.70;73.62
63652;BME280;49801;37.536;-122.304;2022-12-20T00:58:53;102463.31;;;7.70;73.57
63652;BME280;49801;37.536;-122.304;2022-12-20T00:59:19;102461.56;;;7.69;73.45
63652;BME280;49801;37.536;-122.304;2022-12-20T00:59:45;102457.91;;;7.70;73.45
63652;BME280;49801;37.536;-122.304;2022-12-20T01:00:11;102455.31;;;7.69;73.36
63652;BME280;49801;37.536;-122.304;2022-12-20T01:00:37;102457.91;;;7.70;73.42
63652;BME280;49801;37.536;-122.304;2022-12-20T01:01:03;102459.63;;;7.72;73.42
63652;BME280;49801;37.536;-122.304;2022-12-20T01:01:30;102460.84;;;7.67;73.85
63652;BME280;49801;37.536;-122.304;2022-12-20T01:01:57;102458.13;;;7.67;74.07
63652;BME280;49801;37.536;-122.304;2022-12-20T01:02:23;102465.25;;;7.68;73.82
63652;BME280;49801;37.536;-122.304;2022-12-20T01:02:48;102462.56;;;7.68;73.84
63652;BME280;49801;37.536;-122.304;2022-12-20T01:03:14;102465.25;;;7.68;73.91
63652;BME280;49801;37.536;-122.304;2022-12-20T01:03:40;102464.28;;;7.69;73.90
63652;BME280;49801;37.536;-122.304;2022-12-20T01:04:06;102464.84;;;7.62;74.01
63652;BME280;49801;37.536;-122.304;2022-12-20T01:04:32;102472.28;;;7.58;74.09
63652;BME280;49801;37.536;-122.304;2022-12-20T01:04:58;102467.88;;;7.57;74.19
63652;BME280;49801;37.536;-122.304;2022-12-20T01:05:24;102475.22;;;7.55;74.37
63652;BME280;49801;37.536;-122.304;2022-12-20T01:05:53;102473.47;;;7.54;74.23
63652;BME280;49801;37.536;-122.304;2022-12-20T01:06:20;102473.47;;;7.54;74.50
63652;BME280;49801;37.536;-122.304;2022-12-20T01:06:46;102469.91;;;7.54;74.27
63652;BME280;49801;37.536;-122.304;2022-12-20T01:07:11;102471.00;;;7.51;74.50
63652;BME280;49801;37.536;-122.304;2022-12-20T01:07:37;102481.25;;;7.46;74.84
63652;BME280;49801;37.536;-122.304;2022-12-20T01:08:03;102481.47;;;7.43;74.81
63652;BME280;49801;37.536;-122.304;2022-12-20T01:08:29;102471.88;;;7.39;75.08
63652;BME280;49801;37.536;-122.304;2022-12-20T01:08:55;102473.72;;;7.38;75.28
63652;BME280;49801;37.536;-122.304;2022-12-20T01:09:22;102479.09;;;7.38;75.43
63652;BME280;49801;37.536;-122.304;2022-12-20T01:09:48;102478.16;;;7.39;75.33
63652;BME280;49801;37.536;-122.304;2022-12-20T01:10:13;102475.44;;;7.39;75.16
63652;BME280;49801;37.536;-122.304;2022-12-20T01:10:39;102478.25;;;7.38;75.29
63652;BME280;49801;37.536;-122.304;2022-12-20T01:11:06;102478.47;;;7.35;75.42
63652;BME280;49801;37.536;-122.304;2022-12-20T01:11:33;102473.06;;;7.35;75.19
63652;BME280;49801;37.536;-122.304;2022-12-20T01:11:59;102472.88;;;7.38;74.88
63652;BME280;49801;37.536;-122.304;2022-12-20T01:12:25;102476.63;;;7.35;74.90
63652;BME280;49801;37.536;-122.304;2022-12-20T01:12:51;102476.53;;;7.37;74.83
63652;BME280;49801;37.536;-122.304;2022-12-20T01:13:17;102473.06;;;7.35;75.13
63652;BME280;49801;37.536;-122.304;2022-12-20T01:13:44;102476.72;;;7.33;74.89
63652;BME280;49801;37.536;-122.304;2022-12-20T01:14:11;102473.28;;;7.31;75.06
63652;BME280;49801;37.536;-122.304;2022-12-20T01:14:37;102477.63;;;7.34;74.83
63652;BME280;49801;37.536;-122.304;2022-12-20T01:15:03;102476.53;;;7.37;74.65
63652;BME280;49801;37.536;-122.304;2022-12-20T01:15:29;102477.25;;;7.39;74.52
63652;BME280;49801;37.536;-122.304;2022-12-20T01:15:55;102483.66;;;7.38;74.33
63652;BME280;49801;37.536;-122.304;2022-12-20T01:16:28;102473.72;;;7.38;74.12
63652;BME280;49801;37.536;-122.304;2022-12-20T01:16:54;102479.97;;;7.39;74.21
63652;BME280;49801;37.536;-122.304;2022-12-20T01:17:20;102466.69;;;7.36;74.31
63652;BME280;49801;37.536;-122.304;2022-12-20T01:17:46;102476.53;;;7.37;74.28
63652;BME280;49801;37.536;-122.304;2022-12-20T01:18:12;102428.25;;;7.08;74.37
63652;BME280;49801;37.536;-122.304;2022-12-20T01:18:38;102477.47;;;7.36;74.46
63652;BME280;49801;37.536;-122.304;2022-12-20T01:19:04;102473.06;;;7.35;74.41
63652;BME280;49801;37.536;-122.304;2022-12-20T01:19:31;102474.78;;;7.36;74.60
63652;BME280;49801;37.536;-122.304;2022-12-20T01:19:57;102466.84;;;7.34;74.63
63652;BME280;49801;37.536;-122.304;2022-12-20T01:20:22;102469.63;;;7.32;74.57
63652;BME280;49801;37.536;-122.304;2022-12-20T01:20:49;102465.31;;;7.30;74.46
63652;BME280;49801;37.536;-122.304;2022-12-20T01:21:15;102473.50;;;7.28;74.52
63652;BME280;49801;37.536;-122.304;2022-12-20T01:21:41;102465.63;;;7.25;74.50
63652;BME280;49801;37.536;-122.304;2022-12-20T01:22:10;102476.28;;;7.27;74.47
63652;BME280;49801;37.536;-122.304;2022-12-20T01:22:35;102472.97;;;7.23;74.65
63652;BME280;49801;37.536;-122.304;2022-12-20T01:23:02;102473.72;;;7.25;74.56
63652;BME280;49801;37.536;-122.304;2022-12-20T01:23:28;102468.31;;;7.25;74.57
63652;BME280;49801;37.536;-122.304;2022-12-20T01:23:54;102475.66;;;7.23;74.60
63652;BME280;49801;37.536;-122.304;2022-12-20T01:24:20;102473.94;;;7.22;74.82
63652;BME280;49801;37.536;-122.304;2022-12-20T01:24:46;102474.91;;;7.21;74.74
63652;BME280;49801;37.536;-122.304;2022-12-20T01:25:12;102479.75;;;7.16;74.95
63652;BME280;49801;37.536;-122.304;2022-12-20T01:25:37;102469.19;;;7.13;75.24
63652;BME280;49801;37.536;-122.304;2022-12-20T01:26:04;102470.94;;;7.14;74.95
63652;BME280;49801;37.536;-122.304;2022-12-20T01:26:33;102474.38;;;7.16;74.99
63652;BME280;49801;37.536;-122.304;2022-12-20T01:26:59;102478.91;;;7.16;75.07
63652;BME280;49801;37.536;-122.304;2022-12-20T01:27:24;102479.00;;;7.14;75.17
63652;BME280;49801;37.536;-122.304;2022-12-20T01:27:50;102486.09;;;7.15;75.30
63652;BME280;49801;37.536;-122.304;2022-12-20T01:28:16;102479.88;;;7.14;75.14
63652;BME280;49801;37.536;-122.304;2022-12-20T01:28:43;102478.03;;;7.15;75.19
63652;BME280;49801;37.536;-122.304;2022-12-20T01:29:09;102474.38;;;7.16;75.20
63652;BME280;49801;37.536;-122.304;2022-12-20T01:29:34;102478.03;;;7.15;75.08
63652;BME280;49801;37.536;-122.304;2022-12-20T01:30:00;102488.94;;;7.13;75.16
63652;BME280;49801;37.536;-122.304;2022-12-20T01:30:26;102484.72;;;7.09;75.43
63652;BME280;49801;37.536;-122.304;2022-12-20T01:30:52;102480.19;;;7.10;75.35
63652;BME280;49801;37.536;-122.304;2022-12-20T01:31:18;102476.94;;;7.05;75.67
63652;BME280;49801;37.536;-122.304;2022-12-20T01:31:44;102477.28;;;7.00;75.82
63652;BME280;49801;37.536;-122.304;2022-12-20T01:32:10;102482.13;;;6.95;75.83
63652;BME280;49801;37.536;-122.304;2022-12-20T01:32:35;102482.03;;;6.97;75.89
63652;BME280;49801;37.536;-122.304;2022-12-20T01:33:01;102474.16;;;6.93;76.17
63652;BME280;49801;37.536;-122.304;2022-12-20T01:33:27;102480.50;;;6.92;76.15
63652;BME280;49801;37.536;-122.304;2022-12-20T01:33:53;102475.00;;;6.94;76.11
63652;BME280;49801;37.536;-122.304;2022-12-20T01:34:18;102472.22;;;6.95;76.05
63652;BME280;49801;37.536;-122.304;2022-12-20T01:34:44;102480.38;;;6.94;76.11
63652;BME280;49801;37.536;-122.304;2022-12-20T01:35:10;102479.75;;;6.90;76.19
63652;BME280;49801;37.536;-122.304;2022-12-20T01:35:36;102472.66;;;6.89;76.28
63652;BME280;49801;37.536;-122.304;2022-12-20T01:36:05;102478.03;;;6.89;76.26
63652;BME280;49801;37.536;-122.304;2022-12-20T01:36:32;102484.47;;;6.87;76.33
63652;BME280;49801;37.536;-122.304;2022-12-20T01:36:59;102474.34;;;6.90;76.20
63652;BME280;49801;37.536;-122.304;2022-12-20T01:37:24;102479.00;;;6.88;76.39
63652;BME280;49801;37.536;-122.304;2022-12-20T01:37:50;102472.84;;;6.86;76.56
63652;BME280;49801;37.536;-122.304;2022-12-20T01:38:16;102474.56;;;6.87;76.59
63652;BME280;49801;37.536;-122.304;2022-12-20T01:38:42;102467.28;;;6.89;76.53
63652;BME280;49801;37.536;-122.304;2022-12-20T01:39:10;102470.72;;;6.91;76.46
63652;BME280;49801;37.536;-122.304;2022-12-20T01:39:36;102473.31;;;6.93;76.34
63652;BME280;49801;37.536;-122.304;2022-12-20T01:40:03;102473.31;;;6.93;76.38
63652;BME280;49801;37.536;-122.304;2022-12-20T01:40:28;102471.47;;;6.93;76.47
63652;BME280;49801;37.536;-122.304;2022-12-20T01:40:54;102475.88;;;6.94;76.46
63652;BME280;49801;37.536;-122.304;2022-12-20T01:41:21;102475.75;;;6.96;76.34
63652;BME280;49801;37.536;-122.304;2022-12-20T01:41:47;102476.63;;;6.97;76.49
63652;BME280;49801;37.536;-122.304;2022-12-20T01:42:13;102476.75;;;6.95;76.37
63652;BME280;49801;37.536;-122.304;2022-12-20T01:42:39;102477.59;;;6.95;76.43
63652;BME280;49801;37.536;-122.304;2022-12-20T01:43:07;102473.94;;;6.97;76.32
63652;BME280;49801;37.536;-122.304;2022-12-20T01:45:10;102470.91;;;6.88;76.45
63652;BME280;49801;37.536;-122.304;2022-12-20T01:45:37;102469.81;;;6.91;76.61
63652;BME280;49801;37.536;-122.304;2022-12-20T01:46:03;102466.19;;;6.92;76.40
63652;BME280;49801;37.536;-122.304;2022-12-20T01:46:30;102469.81;;;6.91;76.45
63652;BME280;49801;37.536;-122.304;2022-12-20T01:46:56;102471.03;;;6.87;76.73
63652;BME280;49801;37.536;-122.304;2022-12-20T01:47:22;102474.56;;;6.87;76.70
63652;BME280;49801;37.536;-122.304;2022-12-20T01:47:48;102474.34;;;6.90;76.73
63652;BME280;49801;37.536;-122.304;2022-12-20T01:48:15;102475.22;;;6.91;76.61
63652;BME280;49801;37.536;-122.304;2022-12-20T01:48:44;102473.31;;;6.93;76.72
63652;BME280;49801;37.536;-122.304;2022-12-20T01:49:43;102476.09;;;6.91;76.84
63652;BME280;49801;37.536;-122.304;2022-12-20T01:50:11;102479.53;;;6.93;76.57
63652;BME280;49801;37.536;-122.304;2022-12-20T01:50:36;102476.94;;;6.92;76.61
63652;BME280;49801;37.536;-122.304;2022-12-20T01:51:03;102479.75;;;6.90;76.66
63652;BME280;49801;37.536;-122.304;2022-12-20T01:51:29;102483.44;;;6.89;76.66
63652;BME280;49801;37.536;-122.304;2022-12-20T01:52:27;102483.19;;;6.92;76.43
63652;BME280;49801;37.536;-122.304;2022-12-20T01:52:54;102483.44;;;6.89;76.49
63652;BME280;49801;37.536;-122.304;2022-12-20T01:53:20;102485.13;;;6.90;76.48
63652;BME280;49801;37.536;-122.304;2022-12-20T01:53:47;102487.94;;;6.89;76.56
63652;BME280;49801;37.536;-122.304;2022-12-20T01:54:16;102483.44;;;6.89;76.62
63652;BME280;49801;37.536;-122.304;2022-12-20T01:54:53;102482.53;;;6.89;76.90
63652;BME280;49801;37.536;-122.304;2022-12-20T01:55:21;102476.09;;;6.91;76.85
63652;BME280;49801;37.536;-122.304;2022-12-20T01:55:49;102485.13;;;6.90;76.76
63652;BME280;49801;37.536;-122.304;2022-12-20T01:56:15;102484.19;;;6.91;76.88
63652;BME280;49801;37.536;-122.304;2022-12-20T01:56:42;102485.34;;;6.87;76.73
63652;BME280;49801;37.536;-122.304;2022-12-20T01:57:13;102483.63;;;6.86;76.64
63652;BME280;49801;37.536;-122.304;2022-12-20T01:57:48;102486.31;;;6.86;76.65
63652;BME280;49801;37.536;-122.304;2022-12-20T01:58:16;102485.56;;;6.84;76.97
63652;BME280;49801;37.536;-122.304;2022-12-20T01:58:43;102487.28;;;6.85;76.78
63652;BME280;49801;37.536;-122.304;2022-12-20T01:59:11;102494.41;;;6.86;76.67
63652;BME280;49801;37.536;-122.304;2022-12-20T01:59:38;102487.19;;;6.87;76.85
63652;BME280;49801;37.536;-122.304;2022-12-20T02:00:05;102488.13;;;6.86;76.72
63652;BME280;49801;37.536;-122.304;2022-12-20T02:00:32;102489.00;;;6.86;76.62
63652;BME280;49801;37.536;-122.304;2022-12-20T02:00:58;102487.28;;;6.85;76.49
63652;BME280;49801;37.536;-122.304;2022-12-20T02:01:24;102481.88;;;6.85;76.59
63652;BME280;49801;37.536;-122.304;2022-12-20T02:01:50;102487.06;;;6.88;76.52
63652;BME280;49801;37.536;-122.304;2022-12-20T02:02:16;102480.84;;;6.88;76.45
63652;BME280;49801;37.536;-122.304;2022-12-20T02:02:42;102476.31;;;6.88;76.53
63652;BME280;49801;37.536;-122.304;2022-12-20T02:03:11;102473.50;;;6.90;76.65
63652;BME280;49801;37.536;-122.304;2022-12-20T02:03:37;102486.88;;;6.91;76.85
63652;BME280;49801;37.536;-122.304;2022-12-20T02:04:04;102487.72;;;6.92;76.93
63652;BME280;49801;37.536;-122.304;2022-12-20T02:04:29;102483.19;;;6.92;76.74
63652;BME280;49801;37.536;-122.304;2022-12-20T02:04:55;102482.22;;;6.93;76.80
63652;BME280;49801;37.536;-122.304;2022-12-20T02:05:21;102491.25;;;6.92;76.75
63652;BME280;49801;37.536;-122.304;2022-12-20T02:05:48;102487.06;;;6.88;77.14
63652;BME280;49801;37.536;-122.304;2022-12-20T02:06:14;102487.06;;;6.88;77.04
63652;BME280;49801;37.536;-122.304;2022-12-20T02:06:41;102489.66;;;6.90;77.28
63652;BME280;49801;37.536;-122.304;2022-12-20T02:07:07;102495.91;;;6.90;77.21
63652;BME280;49801;37.536;-122.304;2022-12-20T02:07:33;102495.91;;;6.90;77.18
63652;BME280;49801;37.536;-122.304;2022-12-20T02:08:00;102491.81;;;6.85;77.41
63652;BME280;49801;37.536;-122.304;2022-12-20T02:08:26;102489.22;;;6.83;77.30
63652;BME280;49801;37.536;-122.304;2022-12-20T02:08:52;102495.47;;;6.84;77.12
63652;BME280;49801;37.536;-122.304;2022-12-20T02:09:19;102497.31;;;6.83;77.17
63652;BME280;49801;37.536;-122.304;2022-12-20T02:09:44;102490.41;;;6.79;77.28
63652;BME280;49801;37.536;-122.304;2022-12-20T02:10:11;102496.53;;;6.81;77.19
63652;BME280;49801;37.536;-122.304;2022-12-20T02:12:36;102490.97;;;6.84;77.08
63652;BME280;49801;37.536;-122.304;2022-12-20T02:13:06;102492.88;;;6.82;76.98
63652;BME280;49801;37.536;-122.304;2022-12-20T02:13:58;102489.22;;;6.83;76.87
63652;BME280;49801;37.536;-122.304;2022-12-20T02:15:55;102488.13;;;6.86;77.43
63652;BME280;49801;37.536;-122.304;2022-12-20T02:16:22;102488.13;;;6.86;77.30
63652;BME280;49801;37.536;-122.304;2022-12-20T02:18:37;102494.81;;;6.80;77.05
63652;BME280;49801;37.536;-122.304;2022-12-20T02:19:14;102492.88;;;6.82;76.99
63652;BME280;49801;37.536;-122.304;2022-12-20T02:21:48;102492.88;;;6.82;76.79
63652;BME280;49801;37.536;-122.304;2022-12-20T02:22:25;102494.81;;;6.80;77.22
63652;BME280;49801;37.536;-122.304;2022-12-20T02:23:32;102487.47;;;6.82;77.06
63652;BME280;49801;37.536;-122.304;2022-12-20T02:24:52;102489.22;;;6.83;77.01
63652;BME280;49801;37.536;-122.304;2022-12-20T02:27:25;102493.31;;;6.89;76.88
63652;BME280;49801;37.536;-122.304;2022-12-20T02:28:02;102498.59;;;6.90;76.74
63652;BME280;49801;37.536;-122.304;2022-12-20T02:29:34;102504.97;;;6.89;76.73
63652;BME280;49801;37.536;-122.304;2022-12-20T02:30:34;102504.97;;;6.89;76.84
63652;BME280;49801;37.536;-122.304;2022-12-20T02:31:03;102505.16;;;6.86;76.48